createdAt,value
2018-08-12T00:01:05.372Z,1.40
2018-08-12T00:03:34.738Z,1.40
2018-08-12T00:06:03.972Z,1.60
2018-08-12T00:08:33.438Z,1.60
2018-08-12T00:11:02.666Z,1.47
2018-08-12T00:13:31.859Z,1.40
2018-08-12T00:16:01.045Z,1.43
2018-08-12T00:18:30.228Z,1.50
2018-08-12T00:20:59.591Z,1.57
2018-08-12T00:23:28.933Z,1.80
2018-08-12T00:25:58.264Z,1.70
2018-08-12T00:28:27.457Z,1.80
2018-08-12T00:30:56.657Z,1.40
2018-08-12T00:33:25.849Z,1.70
2018-08-12T00:35:55.033Z,1.70
2018-08-12T00:38:24.332Z,1.90
2018-08-12T00:40:53.458Z,1.90
2018-08-12T00:43:22.638Z,2.10
2018-08-12T00:45:51.812Z,2.10
2018-08-12T00:48:21.195Z,2.03
2018-08-12T00:50:50.561Z,2.20
2018-08-12T00:53:19.918Z,1.77
2018-08-12T00:55:49.713Z,1.83
2018-08-12T00:58:19.033Z,1.60
2018-08-12T01:00:50.658Z,1.63
2018-08-12T01:03:19.796Z,1.50
2018-08-12T01:05:49.074Z,1.67
2018-08-12T01:08:18.197Z,1.90
2018-08-12T01:10:47.514Z,2.00
2018-08-12T01:13:16.799Z,1.60
2018-08-12T01:15:45.934Z,1.60
2018-08-12T01:18:15.186Z,1.83
2018-08-12T01:20:45.562Z,1.80
2018-08-12T01:23:14.868Z,1.73
2018-08-12T01:25:44.278Z,1.67
2018-08-12T01:28:13.558Z,1.60
2018-08-12T01:30:42.602Z,1.40
2018-08-12T01:33:11.809Z,1.53
2018-08-12T01:35:40.950Z,1.67
2018-08-12T01:38:10.509Z,1.90
2018-08-12T01:40:39.706Z,1.80
2018-08-12T01:43:09.090Z,1.60
2018-08-12T01:45:38.402Z,1.70
2018-08-12T01:48:08.018Z,1.60
2018-08-12T01:50:37.234Z,1.70
2018-08-12T01:53:06.444Z,1.80
2018-08-12T01:55:35.604Z,1.70
2018-08-12T01:58:05.036Z,1.50
2018-08-12T02:00:34.261Z,1.60
2018-08-12T02:03:03.380Z,1.67
2018-08-12T02:05:33.649Z,1.60
2018-08-12T02:08:03.165Z,1.40
2018-08-12T02:10:32.398Z,1.80
2018-08-12T02:13:01.745Z,1.83
2018-08-12T02:15:31.143Z,1.70
2018-08-12T02:18:00.350Z,1.67
2018-08-12T02:20:29.551Z,1.77
2018-08-12T02:22:58.683Z,1.73
2018-08-12T02:25:28.249Z,1.80
2018-08-12T02:27:57.521Z,1.90
2018-08-12T02:30:26.783Z,1.50
2018-08-12T02:32:55.942Z,1.80
2018-08-12T02:35:25.204Z,1.70
2018-08-12T02:37:54.548Z,1.80
2018-08-12T02:40:23.701Z,1.70
2018-08-12T02:42:53.017Z,1.80
2018-08-12T02:45:22.218Z,1.80
2018-08-12T02:47:52.337Z,1.70
2018-08-12T02:50:21.678Z,1.70
2018-08-12T02:52:50.820Z,1.73
2018-08-12T02:55:20.102Z,1.80
2018-08-12T02:57:49.170Z,1.80
2018-08-12T03:00:18.258Z,1.73
2018-08-12T03:02:47.456Z,1.87
2018-08-12T03:05:16.557Z,2.20
2018-08-12T03:07:46.006Z,1.97
2018-08-12T03:10:15.270Z,2.03
2018-08-12T03:12:44.378Z,2.07
2018-08-12T03:15:13.616Z,1.87
2018-08-12T03:17:43.001Z,1.80
2018-08-12T03:20:12.631Z,1.90
2018-08-12T03:22:41.865Z,1.90
2018-08-12T03:25:11.825Z,1.80
2018-08-12T03:27:41.194Z,1.80
2018-08-12T03:30:11.509Z,1.83
2018-08-12T03:32:41.031Z,2.13
2018-08-12T03:35:10.137Z,1.97
2018-08-12T03:37:39.540Z,1.73
2018-08-12T03:40:10.730Z,2.10
2018-08-12T03:42:40.105Z,1.97
2018-08-12T03:45:09.881Z,2.07
2018-08-12T03:47:39.555Z,1.80
2018-08-12T03:50:10.137Z,2.00
2018-08-12T03:52:39.811Z,2.00
2018-08-12T03:55:09.584Z,2.00
2018-08-12T03:57:39.204Z,2.20
2018-08-12T04:00:16.563Z,2.17
2018-08-12T04:02:47.401Z,1.87
2018-08-12T04:05:16.968Z,1.90
2018-08-12T04:07:46.304Z,1.80
2018-08-12T04:10:15.489Z,2.07
2018-08-12T04:12:44.512Z,2.20
2018-08-12T04:15:13.907Z,2.10
2018-08-12T04:17:43.129Z,2.20
2018-08-12T04:20:12.845Z,2.10
2018-08-12T04:22:41.951Z,2.40
2018-08-12T04:25:11.189Z,2.07
2018-08-12T04:27:40.347Z,2.20
2018-08-12T04:30:10.359Z,2.00
2018-08-12T04:32:39.857Z,2.23
2018-08-12T04:35:09.281Z,2.17
2018-08-12T04:37:38.562Z,2.10
2018-08-12T04:40:08.463Z,2.00
2018-08-12T04:42:37.897Z,2.07
2018-08-12T04:45:07.778Z,2.03
2018-08-12T04:47:37.146Z,2.00
2018-08-12T04:50:07.384Z,1.97
2018-08-12T04:52:37.000Z,1.80
2018-08-12T04:55:06.515Z,1.77
2018-08-12T04:57:35.901Z,1.60
2018-08-12T05:00:06.324Z,1.80
2018-08-12T05:02:35.373Z,1.80
2018-08-12T05:05:05.131Z,1.80
2018-08-12T05:07:34.305Z,2.03
2018-08-12T05:10:03.438Z,1.90
2018-08-12T05:12:32.985Z,1.67
2018-08-12T05:15:09.470Z,1.70
2018-08-12T05:17:39.065Z,1.97
2018-08-12T05:20:10.623Z,1.83
2018-08-12T05:22:40.726Z,1.83
2018-08-12T05:25:10.173Z,2.10
2018-08-12T05:27:39.429Z,2.00
2018-08-12T05:30:10.281Z,1.90
2018-08-12T05:32:40.702Z,1.83
2018-08-12T05:35:12.392Z,1.70
2018-08-12T05:37:41.865Z,1.80
2018-08-12T05:40:14.001Z,1.60
2018-08-12T05:42:53.210Z,1.63
2018-08-12T05:45:22.533Z,1.80
2018-08-12T05:47:51.837Z,1.87
2018-08-12T05:50:21.465Z,1.60
2018-08-12T05:52:50.734Z,1.60
2018-08-12T05:55:20.212Z,2.50
2018-08-12T05:57:49.451Z,2.50
2018-08-12T06:00:18.821Z,2.33
2018-08-12T06:02:48.201Z,2.00
2018-08-12T06:05:17.341Z,2.10
2018-08-12T06:07:46.739Z,1.70
2018-08-12T06:10:16.249Z,1.80
2018-08-12T06:12:45.522Z,1.40
2018-08-12T06:15:16.774Z,1.70
2018-08-12T06:17:46.063Z,1.30
2018-08-12T06:20:15.565Z,1.30
2018-08-12T06:22:44.724Z,1.33
2018-08-12T06:25:14.030Z,1.30
2018-08-12T06:27:44.371Z,1.40
2018-08-12T06:30:14.945Z,1.40
2018-08-12T06:32:44.366Z,1.30
2018-08-12T06:35:13.739Z,1.40
2018-08-12T06:37:43.849Z,1.57
2018-08-12T06:40:14.026Z,1.40
2018-08-12T06:42:45.354Z,1.50
2018-08-12T06:45:17.298Z,1.17
2018-08-12T06:47:47.516Z,1.40
2018-08-12T06:50:16.621Z,1.43
2018-08-12T06:52:45.838Z,1.40
2018-08-12T06:55:15.132Z,1.50
2018-08-12T06:57:44.820Z,1.33
2018-08-12T07:00:16.120Z,1.40
2018-08-12T07:02:45.466Z,1.27
2018-08-12T07:05:14.532Z,1.13
2018-08-12T07:07:43.654Z,1.40
2018-08-12T07:10:14.173Z,1.50
2018-08-12T07:12:43.365Z,1.30
2018-08-12T07:15:15.693Z,1.00
2018-08-12T07:17:45.933Z,1.30
2018-08-12T07:20:15.652Z,1.17
2018-08-12T07:22:44.913Z,1.17
2018-08-12T07:25:14.799Z,1.10
2018-08-12T07:27:44.209Z,1.03
2018-08-12T07:30:15.463Z,1.10
2018-08-12T07:32:44.536Z,1.20
2018-08-12T07:35:14.092Z,1.07
2018-08-12T07:37:43.516Z,1.00
2018-08-12T07:40:14.957Z,1.13
2018-08-12T07:42:45.732Z,1.10
2018-08-12T07:45:14.797Z,1.10
2018-08-12T07:47:44.484Z,1.13
2018-08-12T07:50:13.859Z,1.03
2018-08-12T07:52:44.320Z,1.17
2018-08-12T07:55:14.425Z,1.33
2018-08-12T07:57:44.701Z,1.00
2018-08-12T08:00:16.583Z,1.00
2018-08-12T08:02:45.971Z,1.00
2018-08-12T08:05:15.220Z,1.10
2018-08-12T08:07:44.593Z,1.67
2018-08-12T08:10:15.430Z,1.10
2018-08-12T08:12:44.861Z,1.00
2018-08-12T08:15:17.817Z,1.00
2018-08-12T08:17:47.153Z,0.80
2018-08-12T08:20:16.965Z,1.13
2018-08-12T08:22:46.583Z,1.20
2018-08-12T08:25:15.956Z,1.10
2018-08-12T08:27:46.445Z,1.00
2018-08-12T08:30:16.289Z,1.00
2018-08-12T08:32:51.751Z,1.00
2018-08-12T08:35:21.055Z,1.00
2018-08-12T08:37:50.345Z,1.10
2018-08-12T08:40:19.683Z,1.00
2018-08-12T08:42:48.924Z,0.90
2018-08-12T08:45:20.981Z,1.00
2018-08-12T08:47:51.577Z,1.02
2018-08-12T08:50:22.234Z,1.00
2018-08-12T08:52:51.676Z,1.07
2018-08-12T08:55:20.850Z,0.90
2018-08-12T08:57:50.042Z,1.00
2018-08-12T09:00:20.334Z,1.00
2018-08-12T09:02:50.759Z,0.95
2018-08-12T09:05:20.297Z,1.00
2018-08-12T09:07:50.762Z,0.93
2018-08-12T09:10:20.520Z,0.93
2018-08-12T09:12:49.636Z,0.88
2018-08-12T09:15:19.709Z,1.02
2018-08-12T09:17:49.502Z,1.10
2018-08-12T09:20:19.981Z,1.00
2018-08-12T09:22:49.299Z,1.15
2018-08-12T09:25:18.615Z,0.90
2018-08-12T09:27:48.022Z,1.10
2018-08-12T09:30:18.282Z,1.00
2018-08-12T09:32:47.690Z,0.90
2018-08-12T09:35:17.000Z,0.90
2018-08-12T09:37:46.293Z,0.78
2018-08-12T09:40:16.722Z,0.98
2018-08-12T09:42:47.085Z,0.90
2018-08-12T09:45:18.647Z,0.70
2018-08-12T09:47:48.064Z,0.90
2018-08-12T09:50:18.880Z,1.00
2018-08-12T09:52:49.037Z,0.98
2018-08-12T09:55:19.075Z,0.88
2018-08-12T09:57:48.436Z,0.80
2018-08-12T10:00:23.512Z,1.05
2018-08-12T10:02:54.423Z,1.05
2018-08-12T10:05:23.890Z,0.88
2018-08-12T10:07:54.105Z,0.80
2018-08-12T10:10:23.382Z,1.00
2018-08-12T10:12:52.711Z,0.93
2018-08-12T10:15:21.844Z,0.80
2018-08-12T10:17:53.752Z,0.98
2018-08-12T10:20:22.941Z,4.22
2018-08-12T10:22:52.268Z,0.95
2018-08-12T10:25:21.416Z,0.90
2018-08-12T10:27:50.716Z,0.90
2018-08-12T10:30:20.121Z,0.80
2018-08-12T10:32:49.276Z,1.00
2018-08-12T10:35:18.610Z,1.00
2018-08-12T10:37:47.991Z,0.80
2018-08-12T10:40:19.002Z,0.80
2018-08-12T10:42:48.942Z,0.95
2018-08-12T10:45:18.095Z,0.93
2018-08-12T10:47:47.465Z,0.80
2018-08-12T10:50:19.757Z,0.80
2018-08-12T10:52:50.006Z,0.90
2018-08-12T10:55:20.541Z,0.70
2018-08-12T10:57:49.876Z,0.70
2018-08-12T11:00:25.737Z,0.93
2018-08-12T11:02:55.256Z,0.65
2018-08-12T11:05:24.548Z,0.80
2018-08-12T11:07:55.556Z,0.90
2018-08-12T11:10:24.848Z,0.80
2018-08-12T11:12:54.030Z,0.70
2018-08-12T11:15:23.183Z,0.80
2018-08-12T11:17:53.425Z,0.80
2018-08-12T11:20:22.793Z,0.85
2018-08-12T11:22:52.060Z,0.75
2018-08-12T11:25:21.149Z,0.80
2018-08-12T11:27:50.645Z,0.55
2018-08-12T11:30:19.971Z,0.80
2018-08-12T11:32:49.360Z,0.70
2018-08-12T11:35:18.613Z,0.60
2018-08-12T11:37:48.021Z,0.72
2018-08-12T11:40:17.413Z,0.72
2018-08-12T11:42:46.721Z,0.68
2018-08-12T11:45:17.377Z,0.70
2018-08-12T11:47:47.590Z,0.80
2018-08-12T11:50:17.369Z,0.53
2018-08-12T11:52:46.889Z,0.50
2018-08-12T11:55:19.432Z,0.60
2018-08-12T11:57:48.782Z,0.50
2018-08-12T12:00:19.747Z,0.55
2018-08-12T12:02:49.965Z,0.55
2018-08-12T12:05:24.363Z,0.50
2018-08-12T12:07:53.669Z,0.62
2018-08-12T12:10:23.584Z,0.60
2018-08-12T12:12:53.510Z,0.40
2018-08-12T12:15:22.700Z,0.55
2018-08-12T12:17:51.876Z,0.70
2018-08-12T12:20:21.435Z,0.60
2018-08-12T12:22:50.670Z,0.55
2018-08-12T12:25:20.721Z,0.55
2018-08-12T12:27:49.857Z,0.70
2018-08-12T12:30:20.712Z,0.62
2018-08-12T12:32:51.385Z,0.62
2018-08-12T12:35:20.757Z,0.70
2018-08-12T12:37:50.261Z,0.57
2018-08-12T12:40:19.997Z,0.90
2018-08-12T12:42:49.569Z,0.70
2018-08-12T12:45:18.781Z,0.70
2018-08-12T12:47:49.221Z,0.60
2018-08-12T12:50:21.712Z,0.65
2018-08-12T12:52:52.017Z,0.70
2018-08-12T12:55:22.300Z,0.75
2018-08-12T12:57:51.493Z,0.90
2018-08-12T13:00:21.475Z,0.70
2018-08-12T13:02:51.367Z,0.70
2018-08-12T13:05:21.649Z,0.70
2018-08-12T13:07:51.115Z,0.80
2018-08-12T13:10:20.868Z,0.80
2018-08-12T13:12:50.108Z,0.70
2018-08-12T13:15:19.437Z,0.80
2018-08-12T13:17:48.777Z,0.70
2018-08-12T13:20:18.991Z,0.80
2018-08-12T13:22:48.847Z,0.88
2018-08-12T13:25:19.490Z,0.68
2018-08-12T13:27:48.883Z,0.72
2018-08-12T13:30:19.168Z,0.78
2018-08-12T13:32:48.881Z,0.80
2018-08-12T13:35:18.334Z,0.70
2018-08-12T13:37:47.819Z,0.70
2018-08-12T13:40:18.056Z,0.80
2018-08-12T13:42:47.852Z,1.00
2018-08-12T13:45:17.091Z,0.88
2018-08-12T13:47:47.389Z,0.90
2018-08-12T13:50:22.663Z,0.80
2018-08-12T13:52:52.634Z,0.70
2018-08-12T13:55:22.497Z,0.70
2018-08-12T13:57:53.579Z,0.78
2018-08-12T14:00:24.365Z,0.85
2018-08-12T14:02:53.596Z,0.80
2018-08-12T14:05:23.029Z,0.60
2018-08-12T14:07:52.832Z,1.10
2018-08-12T14:10:21.943Z,0.90
2018-08-12T14:12:51.175Z,1.00
2018-08-12T14:15:20.779Z,1.07
2018-08-12T14:17:50.645Z,0.70
2018-08-12T14:20:20.830Z,0.90
2018-08-12T14:22:50.125Z,1.10
2018-08-12T14:25:19.261Z,0.70
2018-08-12T14:27:48.421Z,0.93
2018-08-12T14:30:18.793Z,1.20
2018-08-12T14:32:48.573Z,0.78
2018-08-12T14:35:17.848Z,1.10
2018-08-12T14:37:47.174Z,0.82
2018-08-12T14:40:16.543Z,0.80
2018-08-12T14:42:45.948Z,0.80
2018-08-12T14:45:15.737Z,1.10
2018-08-12T14:47:45.304Z,0.98
2018-08-12T14:50:16.201Z,0.70
2018-08-12T14:52:45.366Z,0.60
2018-08-12T14:55:15.309Z,0.82
2018-08-12T14:57:44.659Z,0.90
2018-08-12T15:00:16.253Z,1.00
2018-08-12T15:02:46.949Z,0.80
2018-08-12T15:05:16.461Z,0.90
2018-08-12T15:07:45.676Z,0.70
2018-08-12T15:10:14.786Z,0.95
2018-08-12T15:12:44.502Z,0.90
2018-08-12T15:15:15.822Z,0.90
2018-08-12T15:17:45.766Z,0.90
2018-08-12T15:20:15.713Z,0.85
2018-08-12T15:22:45.002Z,1.02
2018-08-12T15:25:17.519Z,0.80
2018-08-12T15:27:46.853Z,0.80
2018-08-12T15:30:16.388Z,1.10
2018-08-12T15:32:45.662Z,1.00
2018-08-12T15:35:14.843Z,1.10
2018-08-12T15:37:44.239Z,1.10
2018-08-12T15:40:14.718Z,1.00
2018-08-12T15:42:44.296Z,1.55
2018-08-12T15:45:14.973Z,0.90
2018-08-12T15:47:44.616Z,0.95
2018-08-12T15:50:14.320Z,0.75
2018-08-12T15:52:44.765Z,1.10
2018-08-12T15:55:19.091Z,0.80
2018-08-12T15:57:49.258Z,1.00
2018-08-12T16:00:24.666Z,0.80
2018-08-12T16:02:53.802Z,1.00
2018-08-12T16:05:23.074Z,0.82
2018-08-12T16:07:58.994Z,0.80
2018-08-12T16:10:33.210Z,1.10
2018-08-12T16:13:02.493Z,1.30
2018-08-12T16:15:33.825Z,1.00
2018-08-12T16:18:03.097Z,1.10
2018-08-12T16:20:32.574Z,1.05
2018-08-12T16:23:01.821Z,1.10
2018-08-12T16:25:30.915Z,0.88
2018-08-12T16:28:00.130Z,0.90
2018-08-12T16:30:29.455Z,1.00
2018-08-12T16:32:58.657Z,0.80
2018-08-12T16:35:27.938Z,0.90
2018-08-12T16:37:57.557Z,1.00
2018-08-12T16:40:26.841Z,0.88
2018-08-12T16:42:56.185Z,1.00
2018-08-12T16:45:25.525Z,1.10
2018-08-12T16:47:54.968Z,1.00
2018-08-12T16:50:24.270Z,1.00
2018-08-12T16:52:55.525Z,1.00
2018-08-12T16:55:25.262Z,0.93
2018-08-12T16:58:00.429Z,0.93
2018-08-12T17:00:29.604Z,0.85
2018-08-12T17:02:59.088Z,0.90
2018-08-12T17:05:28.462Z,0.98
2018-08-12T17:07:57.897Z,1.02
2018-08-12T17:10:27.294Z,1.10
2018-08-12T17:12:56.489Z,1.10
2018-08-12T17:15:26.301Z,0.90
2018-08-12T17:17:55.433Z,1.07
2018-08-12T17:20:24.849Z,1.30
2018-08-12T17:22:54.172Z,1.10
2018-08-12T17:25:23.413Z,0.90
2018-08-12T17:27:52.974Z,1.00
2018-08-12T17:30:22.147Z,1.00
2018-08-12T17:32:51.293Z,0.80
2018-08-12T17:35:20.422Z,1.00
2018-08-12T17:37:49.872Z,0.90
2018-08-12T17:40:18.982Z,1.00
2018-08-12T17:42:48.157Z,0.90
2018-08-12T17:45:17.323Z,0.90
2018-08-12T17:47:46.534Z,1.00
2018-08-12T17:50:17.111Z,0.85
2018-08-12T17:52:46.311Z,1.00
2018-08-12T17:55:15.800Z,0.90
2018-08-12T17:57:45.250Z,0.90
2018-08-12T18:00:15.888Z,1.00
2018-08-12T18:02:45.320Z,1.00
2018-08-12T18:05:14.657Z,0.95
2018-08-12T18:07:44.273Z,0.93
2018-08-12T18:10:13.832Z,0.98
2018-08-12T18:12:43.146Z,0.88
2018-08-12T18:15:12.960Z,1.10
2018-08-12T18:17:42.784Z,1.05
2018-08-12T18:20:12.143Z,1.00
2018-08-12T18:22:41.559Z,2.92
2018-08-12T18:25:11.710Z,1.55
2018-08-12T18:27:40.862Z,1.10
2018-08-12T18:30:12.349Z,1.10
2018-08-12T18:32:41.724Z,1.10
2018-08-12T18:35:12.592Z,1.20
2018-08-12T18:37:42.082Z,1.45
2018-08-12T18:40:12.265Z,1.10
2018-08-12T18:42:41.402Z,1.20
2018-08-12T18:45:10.610Z,1.15
2018-08-12T18:47:39.808Z,1.10
2018-08-12T18:50:10.299Z,1.30
2018-08-12T18:52:39.726Z,1.35
2018-08-12T18:55:10.865Z,1.10
2018-08-12T18:57:41.153Z,1.30
2018-08-12T19:00:12.392Z,1.55
2018-08-12T19:02:41.588Z,1.42
2018-08-12T19:05:12.154Z,1.20
2018-08-12T19:07:41.314Z,1.05
2018-08-12T19:10:11.160Z,1.10
2018-08-12T19:12:41.099Z,2.00
2018-08-12T19:15:11.438Z,1.80
2018-08-12T19:17:41.865Z,1.90
2018-08-12T19:20:11.633Z,1.50
2018-08-12T19:22:40.878Z,1.40
2018-08-12T19:25:10.479Z,1.60
2018-08-12T19:27:39.749Z,1.40
2018-08-12T19:30:12.111Z,1.40
2018-08-12T19:32:42.543Z,1.35
2018-08-12T19:35:12.757Z,1.40
2018-08-12T19:37:42.632Z,1.45
2018-08-12T19:40:11.866Z,1.40
2018-08-12T19:42:41.127Z,1.30
2018-08-12T19:45:11.574Z,1.50
2018-08-12T19:47:40.664Z,1.40
2018-08-12T19:50:09.972Z,1.40
2018-08-12T19:52:38.992Z,1.60
2018-08-12T19:55:08.717Z,1.67
2018-08-12T19:57:37.870Z,1.57
2018-08-12T20:00:09.457Z,1.60
2018-08-12T20:02:38.733Z,1.60
2018-08-12T20:05:08.327Z,1.60
2018-08-12T20:07:38.636Z,1.60
2018-08-12T20:10:08.918Z,1.70
2018-08-12T20:12:38.170Z,1.87
2018-08-12T20:15:09.178Z,1.63
2018-08-12T20:17:38.456Z,1.50
2018-08-12T20:20:09.499Z,1.83
2018-08-12T20:22:38.917Z,1.80
2018-08-12T20:25:08.665Z,1.50
2018-08-12T20:27:37.713Z,1.67
2018-08-12T20:30:08.657Z,1.50
2018-08-12T20:32:37.893Z,1.57
2018-08-12T20:35:08.174Z,1.50
2018-08-12T20:37:37.478Z,1.50
2018-08-12T20:40:07.677Z,1.37
2018-08-12T20:42:36.929Z,1.30
2018-08-12T20:45:06.800Z,1.77
2018-08-12T20:47:36.461Z,1.43
2018-08-12T20:50:06.217Z,1.40
2018-08-12T20:52:35.583Z,1.60
2018-08-12T20:55:05.318Z,1.50
2018-08-12T20:57:34.681Z,1.70
2018-08-12T21:00:05.158Z,1.53
2018-08-12T21:02:34.478Z,1.67
2018-08-12T21:05:03.819Z,2.10
2018-08-12T21:07:33.303Z,1.70
2018-08-12T21:10:02.439Z,1.50
2018-08-12T21:12:32.614Z,1.77
2018-08-12T21:15:01.935Z,1.50
2018-08-12T21:17:31.217Z,1.50
2018-08-12T21:20:00.521Z,1.30
2018-08-12T21:22:29.805Z,1.70
2018-08-12T21:24:59.043Z,1.50
2018-08-12T21:27:28.622Z,1.40
2018-08-12T21:29:57.962Z,1.60
2018-08-12T21:32:27.496Z,1.40
2018-08-12T21:34:57.002Z,1.20
2018-08-12T21:37:26.434Z,1.20
2018-08-12T21:39:55.858Z,1.30
2018-08-12T21:42:25.046Z,1.40
2018-08-12T21:44:54.348Z,1.40
2018-08-12T21:47:23.737Z,1.00
2018-08-12T21:49:53.030Z,1.30
2018-08-12T21:52:22.313Z,4.30
2018-08-12T21:54:51.772Z,2.43
2018-08-12T21:57:20.866Z,1.30
2018-08-12T21:59:50.173Z,1.30
2018-08-12T22:02:19.356Z,1.20
2018-08-12T22:04:48.578Z,1.20
2018-08-12T22:07:18.025Z,1.50
2018-08-12T22:09:47.324Z,1.50
2018-08-12T22:12:16.623Z,1.53
2018-08-12T22:14:46.374Z,1.40
2018-08-12T22:17:15.601Z,1.40
2018-08-12T22:19:45.161Z,1.30
2018-08-12T22:22:14.453Z,1.30
2018-08-12T22:24:43.759Z,1.47
2018-08-12T22:27:13.143Z,1.40
2018-08-12T22:29:42.457Z,1.23
2018-08-12T22:32:11.762Z,1.50
2018-08-12T22:34:41.185Z,1.50
2018-08-12T22:37:10.330Z,1.40
2018-08-12T22:39:39.657Z,1.60
2018-08-12T22:42:08.953Z,1.30
2018-08-12T22:44:38.460Z,1.47
2018-08-12T22:47:07.829Z,1.40
2018-08-12T22:49:37.183Z,1.30
2018-08-12T22:52:06.778Z,1.27
2018-08-12T22:54:36.369Z,1.50
2018-08-12T22:57:05.751Z,1.50
2018-08-12T22:59:34.877Z,1.60
2018-08-12T23:02:04.445Z,1.50
2018-08-12T23:04:33.685Z,1.40
2018-08-12T23:07:03.001Z,1.50
2018-08-12T23:09:32.381Z,1.60
2018-08-12T23:12:01.530Z,1.40
2018-08-12T23:14:30.782Z,1.43
2018-08-12T23:17:01.718Z,1.47
2018-08-12T23:19:31.092Z,1.30
2018-08-12T23:22:00.388Z,1.60
2018-08-12T23:24:29.733Z,1.70
2018-08-12T23:26:59.006Z,1.43
2018-08-12T23:29:30.184Z,1.50
2018-08-12T23:31:59.373Z,1.50
2018-08-12T23:34:28.681Z,1.67
2018-08-12T23:36:57.985Z,1.40
2018-08-12T23:39:27.262Z,1.63
2018-08-12T23:41:56.606Z,1.60
2018-08-12T23:44:25.762Z,1.47
2018-08-12T23:46:55.023Z,1.50
2018-08-12T23:49:25.469Z,1.60
2018-08-12T23:51:54.720Z,1.60
2018-08-12T23:54:24.057Z,1.70
2018-08-12T23:56:53.184Z,1.57
2018-08-12T23:59:22.709Z,1.57
